Time;durP1;ratioP1;P1;durP2;ratioP2;P2;SDS_P1;SDS_P2;PMS_P1;PMS_P2;Temp;Humidity;BMP_temperature;BMP_pressure;BME280_temperature;BME280_humidity;BME280_pressure;Samples;Min_cycle;Max_cycle;Signal;HPM_P1;HPM_P2
2022/01/09 00:01:18;;;;;;;1.10;0.90;;;;;;;-0.09;100.00;93787.97;5071128;28;24978;-70
2022/01/09 00:03:44;;;;;;;1.45;0.93;;;;;;;-0.08;100.00;93786.25;5071010;28;24422;-70
2022/01/09 00:06:10;;;;;;;1.45;1.10;;;;;;;-0.07;100.00;93777.75;5070753;28;24460;-70
2022/01/09 00:08:38;;;;;;;1.38;1.20;;;;;;;-0.07;100.00;93768.38;5070804;28;24422;-70
2022/01/09 00:11:04;;;;;;;1.43;1.07;;;;;;;-0.07;100.00;93770.94;5070924;28;25037;-70
2022/01/09 00:13:31;;;;;;;1.08;0.88;;;;;;;-0.04;100.00;93764.84;5070933;28;24994;-70
2022/01/09 00:15:57;;;;;;;0.90;0.80;;;;;;;0.02;100.00;93761.97;5070623;28;24449;-70
2022/01/09 00:18:25;;;;;;;1.10;0.70;;;;;;;0.08;100.00;93753.19;5071034;28;24448;-70
2022/01/09 00:20:51;;;;;;;0.85;0.70;;;;;;;0.06;100.00;93750.72;5070881;28;24418;-70
2022/01/09 00:23:18;;;;;;;1.07;0.93;;;;;;;-0.03;100.00;93741.88;5070640;28;24430;-70
2022/01/09 00:25:44;;;;;;;1.40;0.70;;;;;;;0.00;100.00;93743.44;5070774;28;24464;-70
2022/01/09 00:28:11;;;;;;;1.30;0.63;;;;;;;-0.05;100.00;93736.03;5070670;28;24476;-70
2022/01/09 00:30:37;;;;;;;0.50;0.45;;;;;;;0.06;100.00;93732.91;5070916;28;24790;-70
2022/01/09 00:33:05;;;;;;;1.92;1.73;;;;;;;-0.04;100.00;93719.03;5070773;28;24956;-70
2022/01/09 00:35:33;;;;;;;0.90;0.80;;;;;;;-0.06;100.00;93718.31;5070368;28;24418;-70
2022/01/09 00:38:00;;;;;;;0.55;0.47;;;;;;;-0.03;100.00;93715.59;5070504;28;24446;-70
2022/01/09 00:40:26;;;;;;;0.85;0.50;;;;;;;-0.04;100.00;93721.56;5070832;28;24465;-70
2022/01/09 00:42:53;;;;;;;0.47;0.47;;;;;;;-0.13;100.00;93715.25;5070719;28;24441;-70
2022/01/09 00:45:20;;;;;;;1.02;0.50;;;;;;;-0.04;100.00;93712.25;5070482;28;24421;-70
2022/01/09 00:47:46;;;;;;;0.30;0.30;;;;;;;-0.03;100.00;93710.50;5070401;28;24414;-70
2022/01/09 00:50:14;;;;;;;0.40;0.40;;;;;;;-0.02;100.00;93710.41;5070462;28;24422;-71
2022/01/09 00:52:42;;;;;;;0.60;0.43;;;;;;;-0.02;100.00;93707.06;5070668;28;24465;-71
2022/01/09 00:55:10;;;;;;;0.65;0.52;;;;;;;0.24;100.00;93701.34;5070491;28;24867;-70
2022/01/09 00:57:37;;;;;;;0.73;0.40;;;;;;;0.11;100.00;93692.75;5070276;28;24520;-71
2022/01/09 01:00:05;;;;;;;0.50;0.40;;;;;;;0.12;100.00;93680.84;5070326;28;24431;-70
2022/01/09 01:02:31;;;;;;;0.73;0.57;;;;;;;0.08;100.00;93675.09;5070344;28;25007;-71
2022/01/09 01:04:58;;;;;;;0.47;0.40;;;;;;;0.17;100.00;93674.59;5070486;28;24415;-70
2022/01/09 01:07:27;;;;;;;0.30;0.30;;;;;;;0.26;100.00;93670.72;5070291;28;24410;-71
2022/01/09 01:09:57;;;;;;;0.40;0.30;;;;;;;0.27;100.00;93672.34;5070411;28;24426;-71
2022/01/09 01:12:24;;;;;;;0.30;0.30;;;;;;;0.34;100.00;93676.19;5070168;28;24425;-71
2022/01/09 01:14:51;;;;;;;1.35;0.50;;;;;;;0.40;100.00;93667.38;5070247;28;24429;-71
2022/01/09 01:17:17;;;;;;;0.25;0.20;;;;;;;0.27;100.00;93671.53;5069764;28;24979;-71
2022/01/09 01:19:44;;;;;;;0.60;0.60;;;;;;;0.38;100.00;93677.66;5070406;28;24423;-71
2022/01/09 01:22:10;;;;;;;0.30;0.30;;;;;;;0.30;100.00;93679.81;5073238;28;24501;-71
2022/01/09 01:24:38;;;;;;;0.30;0.30;;;;;;;0.22;100.00;93682.81;5074397;28;24415;-71
2022/01/09 01:27:06;;;;;;;0.60;0.40;;;;;;;0.23;100.00;93676.78;5074006;28;24504;-71
2022/01/09 01:29:34;;;;;;;0.90;0.40;;;;;;;0.20;100.00;93678.69;5074014;28;24422;-70
2022/01/09 01:32:00;;;;;;;0.40;0.30;;;;;;;0.21;100.00;93681.13;5074310;28;24419;-70
2022/01/09 01:34:27;;;;;;;0.45;0.30;;;;;;;0.36;100.00;93683.72;5074272;28;24418;-71
2022/01/09 01:36:53;;;;;;;0.30;0.30;;;;;;;0.36;100.00;93676.09;5073724;28;24967;-71
2022/01/09 01:39:20;;;;;;;0.40;0.30;;;;;;;0.33;100.00;93674.53;5073878;28;24426;-71
2022/01/09 01:41:46;;;;;;;0.20;0.20;;;;;;;0.36;100.00;93681.19;5073975;28;24471;-70
2022/01/09 01:44:15;;;;;;;1.90;0.30;;;;;;;0.38;100.00;93681.94;5073782;28;24823;-71
2022/01/09 01:46:41;;;;;;;0.20;0.20;;;;;;;0.42;100.00;93680.84;5073756;28;24768;-71
2022/01/09 01:49:10;;;;;;;0.38;0.20;;;;;;;0.38;100.00;93677.66;5073918;28;24430;-71
2022/01/09 01:51:38;;;;;;;0.28;0.20;;;;;;;0.42;100.00;93684.22;5073763;28;24850;-71
2022/01/09 01:54:05;;;;;;;0.47;0.20;;;;;;;0.45;100.00;93688.31;5073541;28;25143;-71
2022/01/09 01:56:32;;;;;;;0.20;0.20;;;;;;;0.52;100.00;93681.13;5073249;28;24453;-71
2022/01/09 01:58:58;;;;;;;0.30;0.20;;;;;;;0.52;100.00;93679.44;5073366;28;24429;-70
2022/01/09 02:01:26;;;;;;;0.22;0.20;;;;;;;0.44;100.00;93679.03;5073788;28;24422;-70
2022/01/09 02:03:52;;;;;;;0.43;0.20;;;;;;;0.46;100.00;93679.75;5073719;28;24422;-70
2022/01/09 02:06:19;;;;;;;1.20;0.20;;;;;;;0.49;100.00;93677.03;5073374;28;25015;-70
2022/01/09 02:08:45;;;;;;;0.13;0.13;;;;;;;0.50;100.00;93683.78;5073390;28;24422;-71
2022/01/09 02:11:13;;;;;;;0.22;0.20;;;;;;;0.47;100.00;93687.31;5073225;28;24417;-71
2022/01/09 02:13:41;;;;;;;0.30;0.23;;;;;;;0.47;100.00;93694.94;5073072;28;24427;-71
2022/01/09 02:16:16;;;;;;;0.25;0.25;;;;;;;0.43;100.00;93690.13;5073132;28;24476;-71
2022/01/09 02:18:44;;;;;;;0.50;0.30;;;;;;;0.44;100.00;93686.66;5073364;28;24414;-70
2022/01/09 02:21:12;;;;;;;1.30;0.25;;;;;;;0.40;100.00;93688.56;5073271;28;24441;-71
2022/01/09 02:23:40;;;;;;;1.43;0.30;;;;;;;0.43;100.00;93679.94;5073167;28;24502;-71
2022/01/09 02:26:08;;;;;;;0.30;0.15;;;;;;;0.41;100.00;93687.66;5072612;28;24959;-71
2022/01/09 02:28:34;;;;;;;0.10;0.10;;;;;;;0.45;100.00;93684.03;5072874;28;24465;-71
2022/01/09 02:31:01;;;;;;;0.22;0.22;;;;;;;0.45;100.00;93690.88;5073223;28;24445;-71
2022/01/09 02:33:27;;;;;;;0.40;0.20;;;;;;;0.45;100.00;93688.31;5072750;28;24426;-71
2022/01/09 02:35:55;;;;;;;0.40;0.20;;;;;;;0.47;100.00;93684.75;5072725;28;24433;-71
2022/01/09 02:38:23;;;;;;;0.20;0.20;;;;;;;0.56;100.00;93677.53;5072542;28;24542;-71
2022/01/09 02:40:51;;;;;;;0.10;0.10;;;;;;;0.54;100.00;93680.13;5073053;28;24425;-71
2022/01/09 02:43:18;;;;;;;0.63;0.20;;;;;;;0.59;100.00;93679.88;5072944;28;24515;-70
2022/01/09 02:45:48;;;;;;;0.40;0.20;;;;;;;0.63;100.00;93676.22;5072555;28;24419;-71
2022/01/09 02:48:14;;;;;;;0.25;0.17;;;;;;;0.66;100.00;93678.59;5072588;28;24956;-71
2022/01/09 02:50:51;;;;;;;0.30;0.20;;;;;;;0.69;100.00;93684.34;5072711;28;24776;-71
2022/01/09 02:53:20;;;;;;;0.28;0.13;;;;;;;0.73;100.00;93688.34;5072814;28;24419;-70
2022/01/09 02:55:48;;;;;;;0.28;0.17;;;;;;;0.72;100.00;93691.81;5072461;28;24530;-70
2022/01/09 02:58:15;;;;;;;0.45;0.30;;;;;;;0.70;100.00;93686.00;5072375;28;24493;-71
2022/01/09 03:00:43;;;;;;;0.52;0.25;;;;;;;0.76;100.00;93694.19;5072524;28;24784;-70
2022/01/09 03:03:10;;;;;;;0.47;0.30;;;;;;;0.79;100.00;93704.22;5072263;28;24948;-71
2022/01/09 03:05:36;;;;;;;0.28;0.17;;;;;;;0.85;100.00;93711.50;5072089;28;24425;-72
2022/01/09 03:08:03;;;;;;;2.00;0.50;;;;;;;0.84;100.00;93709.84;5072332;28;24426;-72
2022/01/09 03:10:30;;;;;;;0.50;0.22;;;;;;;0.83;100.00;93703.94;5072018;28;24421;-71
2022/01/09 03:12:58;;;;;;;0.40;0.13;;;;;;;0.86;100.00;93708.06;5072328;28;24422;-71
2022/01/09 03:15:25;;;;;;;0.70;0.30;;;;;;;0.90;100.00;93717.16;5072049;28;24415;-71
2022/01/09 03:17:52;;;;;;;0.53;0.30;;;;;;;0.94;100.00;93710.97;5071665;28;24446;-71
2022/01/09 03:20:22;;;;;;;0.40;0.38;;;;;;;0.94;100.00;93714.34;5072128;28;24462;-70
2022/01/09 03:22:48;;;;;;;0.17;0.17;;;;;;;0.94;100.00;93711.78;5071725;28;24929;-71
2022/01/09 03:25:16;;;;;;;0.80;0.20;;;;;;;0.99;100.00;93711.50;5071956;28;24447;-71
2022/01/09 03:27:45;;;;;;;1.10;0.30;;;;;;;0.98;100.00;93709.06;5071639;28;24429;-71
2022/01/09 03:30:13;;;;;;;2.50;0.10;;;;;;;1.01;100.00;93722.44;5071945;28;24506;-70
2022/01/09 03:32:41;;;;;;;1.20;0.20;;;;;;;1.07;100.00;93723.81;5071727;28;24426;-71
2022/01/09 03:35:11;;;;;;;0.38;0.25;;;;;;;1.12;100.00;93729.47;5071877;28;24426;-69
2022/01/09 03:37:38;;;;;;;0.35;0.20;;;;;;;1.09;100.00;93733.00;5071305;28;24489;-71
2022/01/09 03:40:06;;;;;;;0.30;0.10;;;;;;;1.10;100.00;93739.75;5071732;28;24425;-71
2022/01/09 03:42:32;;;;;;;0.10;0.10;;;;;;;1.09;100.00;93739.84;5071636;28;25081;-71
2022/01/09 03:44:59;;;;;;;0.30;0.20;;;;;;;1.09;100.00;93745.75;5070681;28;24431;-71
2022/01/09 03:47:27;;;;;;;0.90;0.20;;;;;;;1.08;100.00;93756.88;5071316;28;24819;-71
2022/01/09 03:49:53;;;;;;;0.50;0.30;;;;;;;1.07;100.00;93769.69;5071570;28;24427;-71
2022/01/09 03:52:19;;;;;;;0.22;0.20;;;;;;;1.07;100.00;93765.41;5071876;28;24426;-70
2022/01/09 03:54:46;;;;;;;0.25;0.10;;;;;;;1.06;100.00;93778.25;5071290;28;24415;-70
2022/01/09 03:57:12;;;;;;;0.60;0.30;;;;;;;1.01;100.00;93775.97;5071472;28;24447;-70
2022/01/09 03:59:39;;;;;;;0.70;0.30;;;;;;;1.04;100.00;93777.50;5071030;28;24476;-71
2022/01/09 04:02:05;;;;;;;0.35;0.22;;;;;;;1.02;100.00;93782.72;5071566;28;24418;-71
2022/01/09 04:04:33;;;;;;;0.40;0.15;;;;;;;1.03;100.00;93781.78;5071237;28;24757;-71
2022/01/09 04:07:00;;;;;;;0.40;0.10;;;;;;;1.08;100.00;93789.19;5070905;28;24979;-71
2022/01/09 04:09:28;;;;;;;0.30;0.20;;;;;;;1.11;100.00;93794.09;5071270;28;24429;-71
2022/01/09 04:12:01;;;;;;;0.35;0.15;;;;;;;1.10;100.00;93800.94;5071171;28;24931;-71
2022/01/09 04:14:28;;;;;;;0.15;0.08;;;;;;;1.09;100.00;93812.03;5071009;28;24423;-71
2022/01/09 04:16:54;;;;;;;0.38;0.00;;;;;;;1.14;100.00;93809.22;5070808;28;24426;-71
2022/01/09 04:19:21;;;;;;;0.13;0.10;;;;;;;1.12;100.00;93829.72;5070756;28;24987;-70
2022/01/09 04:21:49;;;;;;;0.50;0.10;;;;;;;1.19;100.00;93828.47;5070914;28;24460;-70
2022/01/09 04:24:15;;;;;;;1.13;0.10;;;;;;;1.10;100.00;93844.25;5070953;28;24434;-71
2022/01/09 04:26:42;;;;;;;0.10;0.10;;;;;;;1.02;100.00;93861.72;5070354;28;24427;-71
2022/01/09 04:29:08;;;;;;;0.27;0.10;;;;;;;0.95;100.00;93868.06;5070972;28;24509;-71
2022/01/09 04:31:35;;;;;;;0.90;0.20;;;;;;;0.92;100.00;93868.25;5070869;28;24421;-70
2022/01/09 04:34:01;;;;;;;0.10;0.10;;;;;;;0.88;100.00;93884.59;5070865;28;24452;-70
2022/01/09 04:36:28;;;;;;;0.20;0.10;;;;;;;0.88;100.00;93899.91;5070531;28;24541;-70
2022/01/09 04:38:56;;;;;;;0.25;0.15;;;;;;;0.86;100.00;93905.09;5070542;28;24869;-70
2022/01/09 04:41:22;;;;;;;0.60;0.20;;;;;;;0.89;100.00;93927.03;5070320;28;24458;-70
2022/01/09 04:43:50;;;;;;;0.30;0.10;;;;;;;0.91;100.00;93927.78;5070409;28;24975;-70
2022/01/09 04:46:22;;;;;;;0.30;0.10;;;;;;;0.91;100.00;93928.59;5070347;28;24418;-70
2022/01/09 04:48:51;;;;;;;0.00;0.00;;;;;;;0.96;100.00;93938.53;5070670;28;24458;-71
2022/01/09 04:51:18;;;;;;;0.25;0.08;;;;;;;1.04;100.00;93950.84;5070479;28;24425;-70
2022/01/09 04:53:44;;;;;;;0.00;0.00;;;;;;;1.00;100.00;93965.50;5070409;28;24419;-71
2022/01/09 04:56:12;;;;;;;0.43;0.00;;;;;;;0.99;100.00;93971.50;5070347;28;24776;-71
2022/01/09 04:58:39;;;;;;;0.30;0.00;;;;;;;0.98;100.00;93985.16;5070334;28;24443;-70
2022/01/09 05:01:05;;;;;;;0.28;0.10;;;;;;;1.02;100.00;93976.44;5070579;28;24426;-70
2022/01/09 05:03:32;;;;;;;0.10;0.10;;;;;;;0.91;100.00;93991.50;5070582;28;24419;-71
2022/01/09 05:05:58;;;;;;;0.10;0.00;;;;;;;0.84;100.00;94005.47;5070127;28;24418;-71
2022/01/09 05:08:24;;;;;;;0.00;0.00;;;;;;;0.81;100.00;94009.00;5070338;28;24418;-71
2022/01/09 05:10:51;;;;;;;0.00;0.00;;;;;;;0.79;100.00;94012.53;5070500;28;24441;-70
2022/01/09 05:13:19;;;;;;;0.20;0.00;;;;;;;0.80;100.00;94014.19;5070584;28;24411;-71
2022/01/09 05:15:45;;;;;;;0.00;0.00;;;;;;;0.82;100.00;94020.84;5070162;28;24419;-71
2022/01/09 05:18:14;;;;;;;0.10;0.10;;;;;;;0.82;100.00;94025.13;5070315;28;24458;-70
2022/01/09 05:20:41;;;;;;;1.13;0.68;;;;;;;0.85;100.00;94030.03;5070309;28;24510;-70
2022/01/09 05:23:07;;;;;;;0.00;0.00;;;;;;;0.81;100.00;94031.09;5069976;28;24407;-71
2022/01/09 05:25:34;;;;;;;0.32;0.20;;;;;;;0.89;100.00;94040.00;5069915;28;24975;-71
2022/01/09 05:28:01;;;;;;;0.60;0.10;;;;;;;0.97;100.00;94049.81;5070137;28;24414;-69
2022/01/09 05:30:28;;;;;;;0.32;0.30;;;;;;;0.93;100.00;94064.44;5070075;28;24425;-71
2022/01/09 05:32:55;;;;;;;0.80;0.20;;;;;;;0.93;100.00;94064.44;5070077;28;24421;-70
2022/01/09 05:35:22;;;;;;;0.75;0.20;;;;;;;0.93;100.00;94078.91;5069943;28;24472;-70
2022/01/09 05:37:49;;;;;;;0.45;0.35;;;;;;;0.91;100.00;94076.41;5069477;28;24972;-70
2022/01/09 05:40:15;;;;;;;1.00;0.50;;;;;;;0.93;100.00;94084.00;5070165;28;24484;-70
2022/01/09 05:42:42;;;;;;;1.02;0.50;;;;;;;0.95;100.00;94084.72;5070014;28;24780;-70
2022/01/09 05:45:09;;;;;;;1.00;0.60;;;;;;;0.96;100.00;94096.56;5069836;28;24982;-71
2022/01/09 05:47:37;;;;;;;2.45;0.55;;;;;;;0.99;100.00;94106.59;5069736;28;24419;-71
2022/01/09 05:50:04;;;;;;;2.28;0.60;;;;;;;0.99;100.00;94113.44;5069819;28;24422;-72
2022/01/09 05:52:30;;;;;;;3.10;0.68;;;;;;;0.98;100.00;94119.44;5069982;28;24414;-71
2022/01/09 05:54:57;;;;;;;1.42;0.60;;;;;;;0.97;100.00;94123.72;5070095;28;24433;-71
2022/01/09 05:57:23;;;;;;;2.45;0.77;;;;;;;0.99;100.00;94136.38;5069903;28;24809;-70
2022/01/09 05:59:50;;;;;;;1.23;1.00;;;;;;;0.98;100.00;94137.28;5069475;28;24462;-71
2022/01/09 06:02:16;;;;;;;2.60;1.52;;;;;;;0.97;100.00;94144.13;5069835;28;24465;-71
2022/01/09 06:04:44;;;;;;;3.45;0.90;;;;;;;0.93;100.00;94153.66;5062191;28;24447;-71
2022/01/09 06:07:10;;;;;;;2.67;2.20;;;;;;;0.92;100.00;94161.34;5060351;28;24434;-71
2022/01/09 06:09:37;;;;;;;1.83;1.30;;;;;;;1.00;100.00;94166.06;5061641;28;24428;-71
2022/01/09 06:12:04;;;;;;;0.50;0.28;;;;;;;0.92;100.00;94166.44;5053257;28;24821;-70
2022/01/09 06:14:30;;;;;;;1.00;0.45;;;;;;;0.99;100.00;94167.78;5053223;28;24435;-70
2022/01/09 06:16:56;;;;;;;2.33;0.90;;;;;;;0.98;100.00;94181.44;5053016;28;24415;-71
2022/01/09 06:19:23;;;;;;;0.80;0.60;;;;;;;0.87;100.00;94181.16;5052926;28;24995;-71
2022/01/09 06:21:51;;;;;;;0.70;0.30;;;;;;;0.80;100.00;94190.84;5053172;28;24473;-71
2022/01/09 06:24:17;;;;;;;0.77;0.35;;;;;;;0.79;100.00;94189.19;5053289;28;24461;-71
2022/01/09 06:26:44;;;;;;;3.05;1.55;;;;;;;0.81;100.00;94202.66;5052808;28;24415;-70
2022/01/09 06:29:12;;;;;;;1.25;1.00;;;;;;;0.89;100.00;94200.59;5053044;28;24407;-71
2022/01/09 06:31:39;;;;;;;0.60;0.30;;;;;;;0.86;100.00;94218.56;5052910;28;24450;-70
2022/01/09 06:34:05;;;;;;;1.20;0.43;;;;;;;0.89;100.00;94220.97;5053219;28;24415;-71
2022/01/09 06:36:32;;;;;;;1.45;0.50;;;;;;;0.86;100.00;94227.94;5052681;28;24422;-71
2022/01/09 06:38:59;;;;;;;4.85;1.08;;;;;;;0.80;100.00;94226.50;5052783;28;24451;-71
2022/01/09 06:41:26;;;;;;;2.30;0.90;;;;;;;0.71;100.00;94239.72;5052563;28;24423;-70
2022/01/09 06:43:52;;;;;;;2.75;1.15;;;;;;;0.73;100.00;94248.91;5052700;28;24798;-70
2022/01/09 06:46:19;;;;;;;4.43;1.48;;;;;;;0.87;100.00;94245.69;5052265;28;24415;-71
2022/01/09 06:48:45;;;;;;;6.00;1.70;;;;;;;0.85;100.00;94255.13;5052701;28;24481;-71
2022/01/09 06:51:11;;;;;;;5.15;1.35;;;;;;;0.78;100.00;94261.47;5052462;28;24446;-71
2022/01/09 06:53:38;;;;;;;10.43;1.58;;;;;;;0.72;100.00;94269.38;5052502;28;24430;-70
2022/01/09 06:56:06;;;;;;;4.57;1.75;;;;;;;0.70;100.00;94277.13;5052332;28;24805;-71
2022/01/09 06:58:33;;;;;;;7.82;1.83;;;;;;;0.73;100.00;94279.50;5052001;28;24455;-71
2022/01/09 07:00:59;;;;;;;6.63;1.95;;;;;;;0.71;100.00;94281.31;5052268;28;24465;-71
2022/01/09 07:03:26;;;;;;;5.88;2.00;;;;;;;0.82;100.00;94288.44;5052403;28;24419;-71
2022/01/09 07:05:53;;;;;;;5.97;1.92;;;;;;;0.88;100.00;94283.03;5052108;28;24442;-71
2022/01/09 07:08:19;;;;;;;6.05;1.83;;;;;;;0.91;100.00;94292.25;5052094;28;24415;-71
2022/01/09 07:10:46;;;;;;;5.55;2.00;;;;;;;0.84;100.00;94296.00;5052003;28;24426;-71
2022/01/09 07:13:15;;;;;;;7.75;2.33;;;;;;;0.90;100.00;94298.25;5052143;28;24828;-71
2022/01/09 07:15:42;;;;;;;6.68;1.70;;;;;;;0.89;100.00;94310.19;5051921;28;24634;-70
2022/01/09 07:18:08;;;;;;;6.70;1.88;;;;;;;0.91;100.00;94303.28;5051389;28;24434;-71
2022/01/09 07:20:35;;;;;;;10.13;2.10;;;;;;;0.87;100.00;94322.16;5051632;28;24466;-71
2022/01/09 07:23:01;;;;;;;7.93;1.90;;;;;;;0.87;100.00;94298.41;5052285;28;24506;-72
2022/01/09 07:25:27;;;;;;;9.50;1.80;;;;;;;0.87;100.00;94326.44;5051698;28;24419;-71
2022/01/09 07:27:54;;;;;;;8.88;1.85;;;;;;;0.89;100.00;94334.81;5051580;28;24415;-70
2022/01/09 07:30:22;;;;;;;9.02;2.00;;;;;;;0.89;100.00;94343.31;5051618;28;24422;-70
2022/01/09 07:32:48;;;;;;;5.30;1.90;;;;;;;0.90;100.00;94352.59;5051886;28;24422;-70
2022/01/09 07:35:14;;;;;;;7.60;1.75;;;;;;;0.89;100.00;94360.31;5051592;28;24434;-71
2022/01/09 07:37:41;;;;;;;12.00;2.30;;;;;;;0.98;100.00;94362.44;5051561;28;24468;-71
2022/01/09 07:40:08;;;;;;;6.15;2.03;;;;;;;0.95;100.00;94365.13;5051543;28;24450;-71
2022/01/09 07:42:35;;;;;;;6.35;2.10;;;;;;;0.99;100.00;94360.72;5051264;28;24969;-71
2022/01/09 07:45:01;;;;;;;5.70;1.80;;;;;;;0.92;100.00;94375.47;5051639;28;24438;-71
2022/01/09 07:47:29;;;;;;;9.32;1.83;;;;;;;0.98;100.00;94372.63;5051236;28;24412;-71
2022/01/09 07:49:55;;;;;;;9.25;2.25;;;;;;;0.97;100.00;94373.53;5051290;28;24431;-71
2022/01/09 07:52:22;;;;;;;6.57;2.22;;;;;;;0.99;100.00;94378.56;5051236;28;24473;-71
2022/01/09 07:54:48;;;;;;;7.15;1.85;;;;;;;0.96;100.00;94388.00;5051113;28;24952;-72
2022/01/09 07:57:15;;;;;;;5.35;1.58;;;;;;;0.99;100.00;94392.13;5050576;28;24445;-71
2022/01/09 07:59:41;;;;;;;6.10;1.93;;;;;;;1.00;100.00;94401.41;5050912;28;25023;-72
2022/01/09 08:02:09;;;;;;;7.38;2.30;;;;;;;0.93;100.00;94393.25;5051188;28;24465;-72
2022/01/09 08:04:37;;;;;;;9.60;1.90;;;;;;;0.98;100.00;94402.41;5051199;28;24481;-72
2022/01/09 08:07:03;;;;;;;5.95;2.05;;;;;;;0.97;100.00;94414.31;5050654;28;24519;-70
2022/01/09 08:09:30;;;;;;;7.38;1.73;;;;;;;0.96;100.00;94413.50;5051030;28;24426;-72
2022/01/09 08:11:57;;;;;;;11.32;2.70;;;;;;;0.91;100.00;94410.31;5051057;28;25011;-71
2022/01/09 08:14:23;;;;;;;5.57;1.80;;;;;;;0.99;100.00;94414.25;5051112;28;24423;-71
2022/01/09 08:16:49;;;;;;;5.65;2.08;;;;;;;1.00;100.00;94423.53;5051038;28;24423;-71
2022/01/09 08:19:16;;;;;;;8.85;2.40;;;;;;;1.00;100.00;94424.34;5050804;28;24837;-70
2022/01/09 08:21:43;;;;;;;9.32;2.42;;;;;;;1.02;100.00;94422.56;5051413;28;24423;-71
2022/01/09 08:24:10;;;;;;;9.18;2.67;;;;;;;1.01;100.00;94415.00;5042395;28;24439;-71
2022/01/09 08:26:37;;;;;;;6.55;2.15;;;;;;;1.00;100.00;94426.91;5064462;28;24519;-71
2022/01/09 08:29:03;;;;;;;7.07;2.03;;;;;;;0.99;100.00;94422.72;5068168;28;24422;-71
2022/01/09 08:31:30;;;;;;;7.68;2.50;;;;;;;1.05;100.00;94435.19;5050179;28;24423;-71
2022/01/09 08:33:56;;;;;;;7.38;2.47;;;;;;;1.08;100.00;94435.03;5050632;28;24423;-71
2022/01/09 08:36:23;;;;;;;7.40;2.47;;;;;;;1.09;100.00;94435.88;5049993;28;24439;-71
2022/01/09 08:38:50;;;;;;;10.15;2.40;;;;;;;1.13;100.00;94439.91;5049964;28;24509;-71
2022/01/09 08:41:17;;;;;;;10.68;3.08;;;;;;;1.06;100.00;94444.47;5050326;28;24995;-71
2022/01/09 08:43:43;;;;;;;7.45;2.42;;;;;;;1.08;100.00;94455.44;5050719;28;24423;-71
2022/01/09 08:46:10;;;;;;;10.00;2.97;;;;;;;1.10;100.00;94456.19;5033174;28;24494;-71
2022/01/09 08:48:36;;;;;;;8.27;2.20;;;;;;;1.13;100.00;94465.41;5050324;28;24519;-71
2022/01/09 08:51:03;;;;;;;7.47;2.42;;;;;;;1.15;100.00;94469.56;5050323;28;24797;-71
2022/01/09 08:53:31;;;;;;;7.35;2.60;;;;;;;1.16;100.00;94472.94;5049317;28;24454;-71
2022/01/09 08:55:59;;;;;;;13.63;2.40;;;;;;;1.13;100.00;94470.53;5049570;28;24431;-71
2022/01/09 08:58:25;;;;;;;8.50;2.50;;;;;;;1.17;100.00;94477.13;5050103;28;24431;-71
2022/01/09 09:00:52;;;;;;;10.98;2.13;;;;;;;1.20;100.00;94469.34;5049778;28;24501;-72
2022/01/09 09:03:18;;;;;;;9.63;2.65;;;;;;;1.26;100.00;94465.66;5050087;28;24443;-71
2022/01/09 09:05:45;;;;;;;12.23;2.72;;;;;;;1.29;100.00;94460.41;5051347;28;24481;-71
2022/01/09 09:08:11;;;;;;;8.48;2.20;;;;;;;1.32;100.00;94475.56;5049722;28;24435;-71
2022/01/09 09:10:38;;;;;;;7.75;2.05;;;;;;;1.39;100.00;94472.66;5049768;28;24419;-71
2022/01/09 09:13:06;;;;;;;9.50;3.00;;;;;;;1.43;100.00;94474.16;5050217;28;24419;-71
2022/01/09 09:15:32;;;;;;;8.00;3.47;;;;;;;1.43;100.00;94479.25;5058348;28;24430;-71
2022/01/09 09:17:59;;;;;;;11.67;5.40;;;;;;;1.46;100.00;94491.06;5069852;28;24414;-71
2022/01/09 09:20:25;;;;;;;8.25;3.03;;;;;;;1.49;100.00;94488.38;5069680;28;24496;-71
2022/01/09 09:22:52;;;;;;;8.80;2.50;;;;;;;1.46;100.00;94496.16;5066530;28;25013;-71
2022/01/09 09:25:19;;;;;;;7.80;2.58;;;;;;;1.45;100.00;94499.63;5050888;28;24430;-71
2022/01/09 09:27:46;;;;;;;9.00;2.70;;;;;;;1.43;100.00;94506.50;5067013;28;24422;-71
2022/01/09 09:30:15;;;;;;;7.90;2.40;;;;;;;1.38;100.00;94522.03;5048017;28;24434;-71
2022/01/09 09:32:42;;;;;;;19.02;2.95;;;;;;;1.38;100.00;94527.13;5045745;28;24534;-72
2022/01/09 09:35:09;;;;;;;7.65;2.40;;;;;;;1.38;100.00;94539.06;5040622;28;24482;-71
2022/01/09 09:37:36;;;;;;;14.00;3.05;;;;;;;1.26;100.00;94532.81;5039835;28;24431;-72
2022/01/09 09:40:03;;;;;;;8.77;2.60;;;;;;;1.19;100.00;94539.91;5038511;28;24463;-72
2022/01/09 09:42:29;;;;;;;6.57;1.98;;;;;;;1.11;100.00;94538.59;5042092;28;24434;-72
2022/01/09 09:45:00;;;;;;;9.35;3.10;;;;;;;1.09;100.00;94540.41;5043481;28;24538;-73
2022/01/09 09:47:28;;;;;;;10.68;4.28;;;;;;;1.13;100.00;94545.28;5073305;28;24529;-72
2022/01/09 09:49:55;;;;;;;12.80;4.60;;;;;;;1.15;100.00;94543.50;5073431;28;24480;-71
2022/01/09 09:52:21;;;;;;;10.05;3.47;;;;;;;1.18;100.00;94532.31;5074120;28;24434;-72
2022/01/09 09:54:49;;;;;;;7.90;3.13;;;;;;;1.29;100.00;94532.66;5047591;28;24436;-72
2022/01/09 09:57:16;;;;;;;8.30;2.80;;;;;;;1.36;100.00;94533.19;5072375;28;24427;-72
2022/01/09 09:59:43;;;;;;;19.17;3.55;;;;;;;1.35;100.00;94527.28;5065005;28;24458;-71
2022/01/09 10:02:11;;;;;;;7.38;2.72;;;;;;;1.45;100.00;94535.34;5052857;28;24484;-71
2022/01/09 10:04:57;;;;;;;9.18;3.30;;;;;;;1.40;100.00;94545.72;5053050;28;24502;-72
2022/01/09 10:07:24;;;;;;;10.75;2.45;;;;;;;1.34;100.00;94551.13;5046721;28;24438;-72
2022/01/09 10:09:55;;;;;;;6.68;2.10;;;;;;;1.30;100.00;94554.72;5052937;28;24466;-71
2022/01/09 10:12:26;;;;;;;6.85;2.70;;;;;;;1.21;100.00;94568.72;5049895;28;24431;-71
2022/01/09 10:14:55;;;;;;;12.27;2.67;;;;;;;1.20;100.00;94569.63;5041439;28;24793;-71
2022/01/09 10:17:24;;;;;;;8.77;2.78;;;;;;;1.28;100.00;94565.91;5046482;28;24431;-71
2022/01/09 10:19:53;;;;;;;7.28;2.38;;;;;;;1.15;100.00;94571.56;5052702;28;24554;-71
2022/01/09 10:22:33;;;;;;;8.35;2.63;;;;;;;1.11;100.00;94577.69;5052733;28;24961;-71
2022/01/09 10:25:18;;;;;;;7.88;2.25;;;;;;;1.10;100.00;94581.13;5049766;28;24509;-71
2022/01/09 10:27:46;;;;;;;6.77;2.57;;;;;;;1.26;100.00;94576.19;5050580;28;24484;-72
2022/01/09 10:30:13;;;;;;;6.97;2.50;;;;;;;1.35;100.00;94573.19;5051923;28;24473;-71
2022/01/09 10:32:40;;;;;;;6.97;2.37;;;;;;;1.57;100.00;94569.66;5052776;28;24442;-72
2022/01/09 10:35:13;;;;;;;6.88;2.10;;;;;;;1.73;100.00;94557.00;5053603;28;24486;-71
2022/01/09 10:37:42;;;;;;;8.02;2.30;;;;;;;1.94;100.00;94555.97;5062887;28;24435;-71
2022/01/09 10:40:17;;;;;;;8.45;2.90;;;;;;;2.08;100.00;94561.22;5052080;28;24451;-72
2022/01/09 10:42:44;;;;;;;7.05;2.03;;;;;;;2.04;100.00;94561.44;5052288;28;24817;-71
2022/01/09 10:45:22;;;;;;;5.75;2.00;;;;;;;2.03;100.00;94575.09;5051710;28;24434;-71
2022/01/09 10:47:49;;;;;;;5.20;1.80;;;;;;;2.09;100.00;94572.25;5052220;28;24485;-72
2022/01/09 10:50:32;;;;;;;7.57;2.92;;;;;;;2.16;100.00;94579.53;5052389;28;24422;-72
2022/01/09 10:53:18;;;;;;;6.75;3.25;;;;;;;2.21;100.00;94578.50;5051778;28;24431;-72
2022/01/09 10:55:46;;;;;;;5.45;1.85;;;;;;;2.04;100.00;94587.81;5040935;28;24469;-72
2022/01/09 10:58:17;;;;;;;7.25;2.60;;;;;;;2.14;100.00;94577.97;5052237;28;24427;-72
2022/01/09 11:00:43;;;;;;;7.43;2.05;;;;;;;2.00;100.00;94575.25;5051292;28;24544;-72
2022/01/09 11:03:10;;;;;;;8.68;2.05;;;;;;;2.02;100.00;94578.56;5052323;28;24427;-71
2022/01/09 11:05:39;;;;;;;4.93;1.83;;;;;;;1.95;100.00;94580.59;5053863;28;25196;-71
2022/01/09 11:08:06;;;;;;;5.60;1.92;;;;;;;2.06;100.00;94570.69;5071985;28;24430;-72
2022/01/09 11:10:33;;;;;;;6.63;2.50;;;;;;;2.00;100.00;94568.41;5054564;28;24423;-71
2022/01/09 11:13:02;;;;;;;6.47;3.00;;;;;;;2.12;100.00;94574.69;5037197;28;24438;-71
2022/01/09 11:15:31;;;;;;;4.25;1.98;;;;;;;2.04;100.00;94577.59;5040200;28;24976;-71
2022/01/09 11:18:01;;;;;;;4.38;1.95;;;;;;;2.00;100.00;94583.72;5051165;28;24427;-71
2022/01/09 11:20:27;;;;;;;8.07;2.30;;;;;;;2.13;100.00;94582.25;5050966;28;24485;-72
2022/01/09 11:22:59;;;;;;;5.38;2.38;;;;;;;2.07;100.00;94571.50;5050996;28;24419;-71
2022/01/09 11:25:31;;;;;;;8.02;2.10;;;;;;;2.10;100.00;94577.28;5044668;28;24436;-71
2022/01/09 11:28:06;;;;;;;10.38;2.33;;;;;;;2.13;100.00;94578.88;5050638;28;25002;-71
2022/01/09 11:30:49;;;;;;;5.20;1.88;;;;;;;2.12;100.00;94574.69;5050437;28;24423;-71
2022/01/09 11:33:32;;;;;;;6.68;1.98;;;;;;;2.11;100.00;94578.97;5050566;28;24980;-71